Time;durP1;ratioP1;P1;durP2;ratioP2;P2;SDS_P1;SDS_P2;PMS_P1;PMS_P2;Temp;Humidity;BMP_temperature;BMP_pressure;BME280_temperature;BME280_humidity;BME280_pressure;Samples;Min_cycle;Max_cycle;Signal;HPM_P1;HPM_P2
2023/05/21 00:02:14;;;;;;;12.90;6.93;;;;;;;14.94;100.00;101413.66;5081774;27;20366;-76
2023/05/21 00:04:46;;;;;;;10.88;5.95;;;;;;;14.97;100.00;101405.38;5118926;27;20047;-75
2023/05/21 00:07:14;;;;;;;12.05;6.22;;;;;;;15.01;100.00;101408.56;5098642;27;20039;-76
2023/05/21 00:09:43;;;;;;;12.35;6.20;;;;;;;15.08;100.00;101400.84;5112834;27;20035;-76
2023/05/21 00:12:11;;;;;;;21.02;7.78;;;;;;;15.12;100.00;101399.53;5097831;27;20096;-76
2023/05/21 00:14:38;;;;;;;17.52;6.90;;;;;;;15.18;100.00;101398.09;5103029;27;20046;-76
2023/05/21 00:17:06;;;;;;;12.27;7.00;;;;;;;15.19;100.00;101383.78;5119636;27;20028;-76
2023/05/21 00:19:34;;;;;;;10.77;6.07;;;;;;;15.24;100.00;101385.00;5079475;27;20169;-76
2023/05/21 00:22:03;;;;;;;10.65;6.68;;;;;;;15.23;100.00;101388.66;5113934;27;20031;-76
2023/05/21 00:24:30;;;;;;;12.90;6.45;;;;;;;15.25;100.00;101389.34;5113062;27;20031;-75
2023/05/21 00:26:58;;;;;;;9.13;5.85;;;;;;;15.25;100.00;101381.38;5094651;27;20632;-76
2023/05/21 00:29:28;;;;;;;12.63;6.03;;;;;;;15.32;100.00;101381.56;5100922;27;20043;-76
2023/05/21 00:31:56;;;;;;;11.23;5.72;;;;;;;15.32;100.00;101376.25;5107199;27;20035;-76
2023/05/21 00:34:25;;;;;;;9.73;5.93;;;;;;;15.35;100.00;101378.59;5109850;27;20461;-75
2023/05/21 00:36:54;;;;;;;10.27;5.88;;;;;;;15.37;100.00;101384.63;5088177;27;20027;-77
2023/05/21 00:39:22;;;;;;;9.02;5.38;;;;;;;15.38;100.00;101378.28;5109170;27;20039;-76
2023/05/21 00:41:50;;;;;;;9.95;5.40;;;;;;;15.37;100.00;101381.97;5098617;27;20038;-76
2023/05/21 00:44:19;;;;;;;14.45;6.10;;;;;;;15.40;100.00;101380.81;5112261;28;20790;-76
2023/05/21 00:46:47;;;;;;;15.38;6.28;;;;;;;15.40;100.00;101382.66;5112245;27;20024;-77
2023/05/21 00:49:17;;;;;;;7.10;4.38;;;;;;;15.40;100.00;101378.13;5111450;28;20051;-75
2023/05/21 00:51:47;;;;;;;5.82;4.40;;;;;;;15.29;100.00;101379.22;5083289;28;20378;-75
2023/05/21 00:54:15;;;;;;;8.85;4.95;;;;;;;15.14;100.00;101378.94;5099919;28;20114;-76
2023/05/21 00:56:43;;;;;;;9.15;5.25;;;;;;;15.11;100.00;101377.38;5089321;28;20031;-77
2023/05/21 00:59:11;;;;;;;6.88;4.05;;;;;;;15.03;100.00;101379.13;5088857;28;20036;-77
2023/05/21 01:01:38;;;;;;;7.30;3.70;;;;;;;15.03;100.00;101384.47;5113084;28;20031;-78
2023/05/21 01:04:07;;;;;;;6.28;3.30;;;;;;;14.99;100.00;101382.09;5108413;28;20133;-76
2023/05/21 01:06:34;;;;;;;5.18;3.15;;;;;;;15.02;100.00;101390.78;5097656;28;20028;-77
2023/05/21 01:09:05;;;;;;;3.58;2.50;;;;;;;14.97;100.00;101392.06;5084171;28;20532;-76
2023/05/21 01:11:45;;;;;;;4.75;2.22;;;;;;;14.95;100.00;101379.91;5098727;27;20027;-75
2023/05/21 01:14:15;;;;;;;4.75;2.80;;;;;;;14.84;100.00;101381.75;5080924;27;20054;-76
2023/05/21 01:16:45;;;;;;;5.22;2.33;;;;;;;14.85;100.00;101380.81;5114528;27;20035;-76
2023/05/21 01:19:17;;;;;;;3.33;2.42;;;;;;;14.88;100.00;101377.84;5100759;27;20034;-76
2023/05/21 01:21:59;;;;;;;4.75;2.72;;;;;;;14.92;100.00;101366.88;5105973;27;20111;-76
2023/05/21 01:24:28;;;;;;;4.05;2.70;;;;;;;14.89;100.00;101362.72;5113950;27;20046;-77
2023/05/21 01:26:54;;;;;;;5.10;2.72;;;;;;;14.94;100.00;101359.59;5097086;27;20381;-76
2023/05/21 01:29:23;;;;;;;4.40;2.58;;;;;;;14.95;100.00;101361.25;5119071;27;20058;-76
2023/05/21 01:32:18;;;;;;;4.47;2.45;;;;;;;15.03;100.00;101349.84;5108230;27;20081;-75
2023/05/21 01:34:59;;;;;;;3.03;2.10;;;;;;;15.09;100.00;101347.44;5099621;27;20430;-76
2023/05/21 01:37:58;;;;;;;4.50;2.40;;;;;;;15.13;100.00;101350.59;5130185;27;20080;-76
2023/05/21 01:40:39;;;;;;;6.95;2.88;;;;;;;15.18;100.00;101350.19;5116744;27;20087;-76
2023/05/21 01:43:09;;;;;;;2.47;2.10;;;;;;;15.20;100.00;101349.03;5120956;27;20034;-77
2023/05/21 01:45:42;;;;;;;3.75;2.75;;;;;;;15.21;100.00;101352.53;5115524;27;20028;-76
2023/05/21 01:48:12;;;;;;;4.25;2.63;;;;;;;15.17;100.00;101351.16;5100402;27;20434;-76
2023/05/21 01:50:44;;;;;;;4.95;2.70;;;;;;;15.13;100.00;101354.13;5118175;27;20077;-76
2023/05/21 01:53:16;;;;;;;2.70;2.25;;;;;;;15.14;100.00;101352.28;5097087;27;20043;-76
2023/05/21 01:55:45;;;;;;;5.88;3.05;;;;;;;15.14;100.00;101352.28;5097871;27;20039;-77
2023/05/21 01:58:14;;;;;;;2.55;2.13;;;;;;;15.16;100.00;101352.16;5115226;27;20066;-77
2023/05/21 02:00:44;;;;;;;4.35;2.30;;;;;;;15.17;100.00;101348.47;5115984;27;20035;-76
2023/05/21 02:03:15;;;;;;;3.90;2.15;;;;;;;15.22;100.00;101340.88;5125000;27;20043;-82
2023/05/21 02:05:45;;;;;;;2.78;2.10;;;;;;;15.23;100.00;101348.72;5100743;27;20035;-81
2023/05/21 02:08:14;;;;;;;3.65;2.70;;;;;;;15.22;100.00;101344.38;5107235;27;20876;-81
2023/05/21 02:10:42;;;;;;;3.97;2.60;;;;;;;15.27;100.00;101343.94;5098962;27;20027;-81
2023/05/21 02:13:09;;;;;;;4.40;2.35;;;;;;;15.21;100.00;101337.38;5097351;27;20061;-82
2023/05/21 02:15:39;;;;;;;3.35;2.40;;;;;;;15.23;100.00;101331.88;5079297;27;20388;-81
2023/05/21 02:18:05;;;;;;;4.55;2.75;;;;;;;15.24;100.00;101331.72;5102785;27;20047;-76
2023/05/21 02:20:33;;;;;;;3.38;2.40;;;;;;;15.30;100.00;101330.31;5117432;27;20544;-76
2023/05/21 02:23:01;;;;;;;3.78;2.20;;;;;;;15.29;100.00;101328.59;5099486;28;20146;-76
2023/05/21 02:25:29;;;;;;;4.13;3.17;;;;;;;15.32;100.00;101324.81;5117735;27;20043;-81
2023/05/21 02:27:56;;;;;;;3.85;2.30;;;;;;;15.31;100.00;101326.63;5110441;27;20039;-76
2023/05/21 02:30:26;;;;;;;3.58;2.58;;;;;;;15.34;100.00;101329.00;5112350;27;20031;-76
2023/05/21 02:32:57;;;;;;;4.10;2.80;;;;;;;15.33;100.00;101334.47;5113772;27;21380;-76
2023/05/21 02:35:27;;;;;;;4.63;2.40;;;;;;;15.31;100.00;101331.97;5095231;27;20039;-76
2023/05/21 02:37:58;;;;;;;3.55;2.60;;;;;;;15.32;100.00;101322.16;5113717;27;20256;-76
2023/05/21 02:40:26;;;;;;;2.58;2.38;;;;;;;15.28;100.00;101320.78;5086619;27;20471;-76
2023/05/21 02:42:54;;;;;;;2.50;2.30;;;;;;;15.27;100.00;101327.09;5109643;27;20035;-76
2023/05/21 02:45:21;;;;;;;4.65;2.20;;;;;;;15.23;100.00;101327.41;5100054;27;20073;-76
2023/05/21 02:47:50;;;;;;;4.32;2.25;;;;;;;15.27;100.00;101327.09;5099032;27;20073;-77
2023/05/21 02:50:21;;;;;;;3.58;2.28;;;;;;;15.26;100.00;101323.59;5049419;27;20118;-76
2023/05/21 02:53:01;;;;;;;3.53;2.38;;;;;;;15.22;100.00;101319.56;5096927;28;20060;-82
2023/05/21 02:55:32;;;;;;;3.47;2.78;;;;;;;15.22;100.00;101320.41;5098683;27;20677;-81
2023/05/21 02:58:02;;;;;;;3.75;2.38;;;;;;;15.21;100.00;101318.72;5095321;27;20035;-77
2023/05/21 03:00:29;;;;;;;4.25;2.63;;;;;;;15.20;100.00;101326.88;5112171;27;20035;-76
2023/05/21 03:02:57;;;;;;;4.32;2.40;;;;;;;15.23;100.00;101318.56;5099466;28;20070;-77
2023/05/21 03:05:25;;;;;;;3.13;2.42;;;;;;;15.19;100.00;101312.75;5115738;27;20042;-76
2023/05/21 03:07:53;;;;;;;5.07;2.95;;;;;;;15.20;100.00;101321.53;5100349;27;20035;-81
2023/05/21 03:10:20;;;;;;;4.22;2.63;;;;;;;15.16;100.00;101320.19;5118559;27;20031;-82
2023/05/21 03:12:52;;;;;;;3.97;2.50;;;;;;;15.17;100.00;101320.03;5098926;27;20042;-76
2023/05/21 03:15:22;;;;;;;4.03;3.30;;;;;;;15.15;100.00;101321.16;5115226;27;20074;-76
2023/05/21 03:17:52;;;;;;;4.18;3.10;;;;;;;15.12;100.00;101314.31;5112763;27;20792;-81
2023/05/21 03:20:20;;;;;;;3.85;3.20;;;;;;;15.10;100.00;101319.81;5112771;27;20031;-80
2023/05/21 03:22:49;;;;;;;6.18;3.83;;;;;;;15.12;100.00;101315.16;5102704;27;20671;-76
2023/05/21 03:25:18;;;;;;;8.32;4.65;;;;;;;15.05;100.00;101321.25;5115365;27;20091;-75
2023/05/21 03:27:46;;;;;;;4.78;3.50;;;;;;;15.07;100.00;101321.94;5103546;27;20047;-76
2023/05/21 03:30:45;;;;;;;5.57;2.85;;;;;;;15.03;100.00;101320.56;5112341;27;20405;-76
2023/05/21 03:33:32;;;;;;;5.63;2.53;;;;;;;15.06;100.00;101317.59;5098138;27;20080;-76
2023/05/21 03:36:02;;;;;;;4.78;3.25;;;;;;;15.02;100.00;101317.06;5103162;27;20031;-76
2023/05/21 03:38:32;;;;;;;6.30;3.15;;;;;;;15.04;100.00;101323.06;5102053;27;20051;-76
2023/05/21 03:41:01;;;;;;;5.60;3.28;;;;;;;15.02;100.00;101316.25;5081374;28;20501;-77
2023/05/21 03:43:28;;;;;;;4.60;3.10;;;;;;;14.96;100.00;101318.50;5105794;27;20073;-76
2023/05/21 03:45:56;;;;;;;4.28;2.97;;;;;;;14.96;100.00;101318.50;5117589;27;20496;-76
2023/05/21 03:48:56;;;;;;;6.47;3.20;;;;;;;14.93;100.00;101323.28;5114625;27;20058;-77
2023/05/21 03:51:26;;;;;;;5.30;3.03;;;;;;;14.96;100.00;101323.00;5089060;27;20087;-77
2023/05/21 03:53:54;;;;;;;5.10;3.13;;;;;;;14.95;100.00;101321.34;5088135;27;20055;-77
2023/05/21 03:56:25;;;;;;;5.95;3.58;;;;;;;14.98;100.00;101327.19;5115350;27;20041;-76
2023/05/21 03:58:54;;;;;;;3.22;2.92;;;;;;;14.96;100.00;101326.50;5080400;27;20401;-76
2023/05/21 04:01:22;;;;;;;4.00;2.80;;;;;;;14.87;100.00;101325.56;5113322;27;20031;-77
2023/05/21 04:03:52;;;;;;;3.00;2.70;;;;;;;14.91;100.00;101320.78;5102720;27;20031;-76
2023/05/21 04:06:23;;;;;;;6.20;2.70;;;;;;;14.92;100.00;101325.16;5109535;27;20034;-76
2023/05/21 04:08:52;;;;;;;5.40;3.28;;;;;;;14.97;100.00;101322.84;5081265;28;20035;-76
2023/05/21 04:11:21;;;;;;;4.28;3.13;;;;;;;14.96;100.00;101329.16;5084454;27;20115;-77
2023/05/21 04:13:49;;;;;;;4.97;3.42;;;;;;;14.98;100.00;101319.22;5097290;28;20598;-76
2023/05/21 04:16:17;;;;;;;7.32;3.20;;;;;;;14.97;100.00;101320.19;5114707;27;20046;-77
2023/05/21 04:18:45;;;;;;;3.13;2.65;;;;;;;15.03;100.00;101315.25;5110627;27;20548;-81
2023/05/21 04:21:15;;;;;;;7.70;3.22;;;;;;;14.99;100.00;101312.03;5111990;27;20039;-81
2023/05/21 04:23:43;;;;;;;4.30;2.78;;;;;;;15.02;100.00;101311.72;5112311;27;20451;-77
2023/05/21 04:26:21;;;;;;;7.28;3.20;;;;;;;14.99;100.00;101320.03;5113148;27;20039;-77
2023/05/21 04:28:52;;;;;;;5.28;3.40;;;;;;;15.02;100.00;101313.59;5094591;27;20027;-76
2023/05/21 04:31:22;;;;;;;5.72;3.28;;;;;;;15.03;100.00;101315.25;5111707;27;20035;-75
2023/05/21 04:33:52;;;;;;;5.00;3.72;;;;;;;15.03;100.00;101309.91;5117588;27;20032;-76
2023/05/21 04:36:23;;;;;;;4.35;3.20;;;;;;;15.03;100.00;101313.44;5096270;28;20612;-76
2023/05/21 04:38:52;;;;;;;4.38;3.28;;;;;;;15.02;100.00;101314.41;5132058;27;20100;-76
2023/05/21 04:41:22;;;;;;;6.68;3.33;;;;;;;15.05;100.00;101313.28;5110749;27;20063;-77
2023/05/21 04:43:53;;;;;;;6.40;3.70;;;;;;;15.05;100.00;101307.94;5099111;27;20031;-81
2023/05/21 04:46:25;;;;;;;4.72;3.60;;;;;;;15.05;100.00;101306.09;5098892;27;20023;-81
2023/05/21 04:48:56;;;;;;;5.90;3.45;;;;;;;15.06;100.00;101302.47;5088729;28;20062;-76
2023/05/21 04:51:25;;;;;;;9.48;3.40;;;;;;;15.09;100.00;101303.97;5078636;28;20027;-76
2023/05/21 04:53:53;;;;;;;5.90;3.20;;;;;;;15.05;100.00;101299.97;5117245;27;20028;-76
2023/05/21 04:56:26;;;;;;;5.50;3.60;;;;;;;15.08;100.00;101303.13;5111326;28;20106;-77
2023/05/21 04:58:57;;;;;;;6.72;4.18;;;;;;;15.09;100.00;101294.19;5093264;28;20027;-77
2023/05/21 05:01:28;;;;;;;4.05;3.03;;;;;;;15.10;100.00;101301.16;5113623;28;20194;-77
2023/05/21 05:03:58;;;;;;;6.50;3.53;;;;;;;15.10;100.00;101300.31;5101274;28;20027;-77
2023/05/21 05:06:25;;;;;;;4.72;3.33;;;;;;;15.06;100.00;101302.47;5097436;28;20041;-76
2023/05/21 05:08:55;;;;;;;4.00;3.20;;;;;;;15.06;100.00;101306.94;5102141;28;20020;-76
2023/05/21 05:11:22;;;;;;;4.13;3.20;;;;;;;15.03;100.00;101307.25;5116601;27;20030;-77
2023/05/21 05:13:52;;;;;;;4.32;3.47;;;;;;;15.04;100.00;101301.78;5108289;28;20035;-76
2023/05/21 05:16:23;;;;;;;3.00;2.67;;;;;;;15.03;100.00;101305.44;5104354;28;20054;-78
2023/05/21 05:18:52;;;;;;;7.35;3.28;;;;;;;15.04;100.00;101303.59;5102910;28;20043;-77
2023/05/21 05:21:21;;;;;;;3.88;3.13;;;;;;;15.03;100.00;101300.13;5112569;28;20127;-77
2023/05/21 05:23:50;;;;;;;5.20;3.00;;;;;;;15.04;100.00;101303.59;5109324;28;20035;-77
2023/05/21 05:26:20;;;;;;;3.78;2.88;;;;;;;15.04;100.00;101308.91;5100861;28;20119;-77
2023/05/21 05:28:49;;;;;;;3.30;3.00;;;;;;;15.03;100.00;101309.91;5094621;28;20111;-77
2023/05/21 05:31:18;;;;;;;3.38;2.38;;;;;;;15.04;100.00;101309.78;5090502;28;20136;-77
2023/05/21 05:33:47;;;;;;;3.00;2.72;;;;;;;15.05;100.00;101308.78;5113780;28;20031;-77
2023/05/21 05:36:15;;;;;;;5.32;2.75;;;;;;;15.08;100.00;101318.28;5113036;28;20034;-77
2023/05/21 05:38:43;;;;;;;3.58;2.70;;;;;;;15.05;100.00;101311.44;5111677;28;20031;-78
2023/05/21 05:41:12;;;;;;;4.22;2.97;;;;;;;15.08;100.00;101313.78;5113389;28;20035;-76
2023/05/21 05:43:40;;;;;;;5.43;3.10;;;;;;;15.06;100.00;101310.47;5099846;28;20027;-77
2023/05/21 05:46:08;;;;;;;4.35;2.88;;;;;;;15.05;100.00;101311.44;5092313;28;20431;-78
2023/05/21 05:48:35;;;;;;;4.88;2.50;;;;;;;14.97;100.00;101312.19;5101673;28;20100;-81
2023/05/21 05:51:04;;;;;;;2.42;2.20;;;;;;;14.98;100.00;101313.03;5104962;28;20032;-81
2023/05/21 05:53:32;;;;;;;3.08;2.50;;;;;;;14.97;100.00;101312.19;5097953;28;20035;-81
2023/05/21 05:56:02;;;;;;;2.85;1.92;;;;;;;14.95;100.00;101300.03;5098103;28;20062;-80
2023/05/21 05:58:33;;;;;;;5.80;2.35;;;;;;;14.95;100.00;101313.34;5112918;27;20073;-77
2023/05/21 06:01:12;;;;;;;6.72;2.75;;;;;;;14.94;100.00;101314.34;5100051;27;20035;-78
2023/05/21 06:03:40;;;;;;;5.03;2.50;;;;;;;14.93;100.00;101321.47;5114390;27;20102;-77
2023/05/21 06:06:16;;;;;;;4.82;2.50;;;;;;;14.91;100.00;101319.97;5107421;27;20080;-77
2023/05/21 06:08:45;;;;;;;6.55;2.90;;;;;;;14.93;100.00;101317.97;5120350;27;20057;-77
2023/05/21 06:11:15;;;;;;;6.40;2.50;;;;;;;14.91;100.00;101318.13;5113570;27;20070;-77
2023/05/21 06:13:44;;;;;;;3.97;2.38;;;;;;;14.92;100.00;101314.50;5101951;27;20493;-77
2023/05/21 06:16:12;;;;;;;5.20;2.38;;;;;;;14.90;100.00;101328.94;5098108;27;20482;-80
2023/05/21 06:18:41;;;;;;;3.92;2.13;;;;;;;14.88;100.00;101321.09;5123411;27;20039;-78
2023/05/21 06:21:08;;;;;;;3.08;2.75;;;;;;;14.84;100.00;101320.53;5104161;27;20515;-78
2023/05/21 06:23:38;;;;;;;3.13;2.25;;;;;;;14.84;100.00;101331.19;5096918;27;20039;-78
2023/05/21 06:26:09;;;;;;;2.40;2.13;;;;;;;14.81;100.00;101318.19;5118469;27;20030;-77
2023/05/21 06:28:38;;;;;;;1.83;1.55;;;;;;;14.78;100.00;101325.63;5115355;27;20031;-77
2023/05/21 06:31:08;;;;;;;2.55;1.70;;;;;;;14.67;100.00;101327.50;5095584;28;20557;-78
2023/05/21 06:33:39;;;;;;;3.33;1.65;;;;;;;14.70;100.00;101323.72;5116071;27;20511;-77
2023/05/21 06:36:09;;;;;;;4.90;1.95;;;;;;;14.73;100.00;101337.53;5096573;27;20042;-78
2023/05/21 06:38:37;;;;;;;2.85;1.80;;;;;;;14.69;100.00;101333.50;5123270;27;20722;-78
2023/05/21 06:41:06;;;;;;;3.85;1.63;;;;;;;14.69;100.00;101330.00;5101932;27;20163;-77
2023/05/21 06:43:46;;;;;;;2.15;1.90;;;;;;;14.64;100.00;101328.66;5101067;27;20562;-78
2023/05/21 06:46:51;;;;;;;1.92;1.73;;;;;;;14.74;100.00;101333.06;5030949;28;20041;-81
2023/05/21 06:49:19;;;;;;;2.10;1.95;;;;;;;14.74;100.00;101333.91;5086510;28;20054;-81
2023/05/21 06:51:47;;;;;;;1.90;1.80;;;;;;;14.80;100.00;101340.47;5101451;27;20572;-81
2023/05/21 06:54:15;;;;;;;1.70;1.60;;;;;;;14.77;100.00;101330.09;5095930;27;20348;-77
2023/05/21 06:56:43;;;;;;;2.25;1.65;;;;;;;14.84;100.00;101333.84;5111436;27;20032;-77
2023/05/21 06:59:12;;;;;;;1.83;1.70;;;;;;;14.86;100.00;101333.72;5116017;27;20036;-78
2023/05/21 07:01:41;;;;;;;1.88;1.45;;;;;;;14.87;100.00;101330.91;5097606;27;20110;-78
2023/05/21 07:04:09;;;;;;;3.65;1.30;;;;;;;14.86;100.00;101331.88;5111568;27;20043;-81
2023/05/21 07:06:39;;;;;;;1.50;1.40;;;;;;;14.82;100.00;101329.69;5096277;27;20031;-81
2023/05/21 07:09:10;;;;;;;2.38;1.20;;;;;;;14.78;100.00;101323.78;5112938;27;20035;-77
2023/05/21 07:11:40;;;;;;;1.58;1.13;;;;;;;14.71;100.00;101339.53;5111874;27;20031;-77
2023/05/21 07:14:11;;;;;;;1.00;1.00;;;;;;;14.67;100.00;101335.47;5110904;27;20084;-77
2023/05/21 07:16:41;;;;;;;1.25;1.10;;;;;;;14.61;100.00;101330.75;5114425;27;20026;-77
2023/05/21 07:19:11;;;;;;;2.58;1.40;;;;;;;14.52;100.00;101340.47;5095292;28;20545;-77
2023/05/21 07:21:41;;;;;;;1.60;0.88;;;;;;;14.49;100.00;101341.59;5087341;27;20039;-77
2023/05/21 07:24:11;;;;;;;1.30;0.90;;;;;;;14.47;100.00;101345.41;5101737;27;20511;-78
2023/05/21 07:26:41;;;;;;;1.35;1.13;;;;;;;14.42;100.00;101347.66;5113323;27;20106;-77
2023/05/21 07:29:10;;;;;;;1.15;0.93;;;;;;;14.37;100.00;101345.44;5117265;27;20035;-81
2023/05/21 07:31:38;;;;;;;1.90;1.20;;;;;;;14.41;100.00;101351.31;5106366;27;20030;-83
2023/05/21 07:34:07;;;;;;;1.58;0.90;;;;;;;14.33;100.00;101350.25;5126982;27;20508;-78
2023/05/21 07:36:36;;;;;;;2.35;1.10;;;;;;;14.42;100.00;101347.66;5108688;27;20036;-77
2023/05/21 07:39:06;;;;;;;0.60;0.50;;;;;;;14.39;100.00;101347.00;5106049;27;20114;-77
2023/05/21 07:41:36;;;;;;;1.45;0.50;;;;;;;14.33;100.00;101352.91;5103658;27;20031;-77
2023/05/21 07:44:08;;;;;;;1.02;0.28;;;;;;;14.31;100.00;101349.53;5087324;27;20452;-81
2023/05/21 07:46:40;;;;;;;0.30;0.30;;;;;;;14.32;100.00;101350.34;5090819;27;20030;-81
2023/05/21 07:49:15;;;;;;;0.38;0.20;;;;;;;14.38;100.00;101352.47;5112568;27;20059;-78
2023/05/21 07:51:46;;;;;;;0.30;0.30;;;;;;;14.38;100.00;101352.47;5093087;27;20297;-77
2023/05/21 07:54:18;;;;;;;0.30;0.17;;;;;;;14.45;100.00;101360.66;5095398;27;20089;-76
2023/05/21 07:56:48;;;;;;;0.10;0.10;;;;;;;14.48;100.00;101352.38;5095319;27;20038;-77
2023/05/21 07:59:32;;;;;;;0.17;0.17;;;;;;;14.58;100.00;101362.97;5095205;27;20504;-77
2023/05/21 08:02:01;;;;;;;3.22;0.60;;;;;;;14.68;100.00;101357.63;5098445;27;20039;-82
2023/05/21 08:04:28;;;;;;;0.30;0.30;;;;;;;14.66;100.00;101365.75;5086757;27;20053;-82
2023/05/21 08:06:57;;;;;;;0.25;0.20;;;;;;;14.62;100.00;101359.06;5119813;27;20035;-76
2023/05/21 08:09:23;;;;;;;0.60;0.20;;;;;;;14.58;100.00;101365.66;5120668;27;20111;-79
2023/05/21 08:11:52;;;;;;;0.63;0.20;;;;;;;14.57;100.00;101370.13;5091866;27;20038;-78
2023/05/21 08:14:19;;;;;;;0.10;0.10;;;;;;;14.50;100.00;101369.03;5095878;27;20762;-78
2023/05/21 08:16:48;;;;;;;0.20;0.20;;;;;;;14.54;100.00;101372.25;5098694;27;20039;-77
2023/05/21 08:19:15;;;;;;;0.22;0.20;;;;;;;14.54;100.00;101369.59;5095184;28;20050;-83
2023/05/21 08:21:42;;;;;;;0.20;0.20;;;;;;;14.61;100.00;101368.84;5105466;27;20488;-81
2023/05/21 08:24:11;;;;;;;0.20;0.10;;;;;;;14.69;100.00;101367.25;5111214;27;20031;-78
2023/05/21 08:26:40;;;;;;;0.68;0.10;;;;;;;14.75;100.00;101367.50;5112094;27;20031;-77
2023/05/21 08:29:08;;;;;;;0.20;0.20;;;;;;;14.79;100.00;101367.22;5106386;27;20528;-78
2023/05/21 08:31:39;;;;;;;0.28;0.20;;;;;;;14.82;100.00;101372.25;5096240;27;20035;-77
2023/05/21 08:34:09;;;;;;;0.20;0.20;;;;;;;14.87;100.00;101372.66;5102879;27;20150;-81
2023/05/21 08:36:52;;;;;;;0.25;0.10;;;;;;;14.87;100.00;101370.00;5100512;28;20040;-78
2023/05/21 08:39:40;;;;;;;0.17;0.17;;;;;;;14.87;100.00;101370.00;5100517;27;20051;-77
2023/05/21 08:42:34;;;;;;;0.10;0.10;;;;;;;14.88;100.00;101371.66;5096993;28;20036;-77
2023/05/21 08:45:05;;;;;;;0.15;0.15;;;;;;;14.78;100.00;101366.38;5084091;28;20028;-78
2023/05/21 08:47:36;;;;;;;0.20;0.20;;;;;;;14.76;100.00;101365.69;5094370;28;20466;-78
2023/05/21 08:50:09;;;;;;;0.40;0.15;;;;;;;14.80;100.00;101372.41;5118737;27;20031;-78
2023/05/21 08:52:37;;;;;;;0.10;0.10;;;;;;;14.76;100.00;101374.50;5080546;28;20080;-78
2023/05/21 08:55:07;;;;;;;0.15;0.10;;;;;;;14.77;100.00;101370.03;5091888;28;20578;-78
2023/05/21 08:57:36;;;;;;;0.10;0.10;;;;;;;14.72;100.00;101374.94;5107480;28;20035;-77
2023/05/21 09:00:06;;;;;;;0.10;0.10;;;;;;;14.74;100.00;101373.84;5103598;28;20039;-79
2023/05/21 09:02:37;;;;;;;0.10;0.10;;;;;;;14.74;100.00;101373.84;5092952;28;20388;-78
2023/05/21 09:05:08;;;;;;;0.30;0.15;;;;;;;14.81;100.00;101379.41;5085427;28;20388;-78
2023/05/21 09:08:02;;;;;;;0.10;0.10;;;;;;;14.85;100.00;101379.94;5096406;28;20043;-78
2023/05/21 09:10:39;;;;;;;0.90;0.10;;;;;;;14.80;100.00;101371.56;5095693;28;20028;-78
2023/05/21 09:13:07;;;;;;;0.10;0.10;;;;;;;14.83;100.00;101377.44;5096912;28;20035;-80
2023/05/21 09:15:36;;;;;;;0.10;0.10;;;;;;;14.93;100.00;101374.72;5098269;28;20046;-81
2023/05/21 09:18:03;;;;;;;0.10;0.00;;;;;;;15.01;100.00;101379.28;5117581;28;20032;-78
2023/05/21 09:20:52;;;;;;;0.00;0.00;;;;;;;15.05;100.00;101379.84;5097802;28;20035;-77
2023/05/21 09:23:20;;;;;;;1.20;0.10;;;;;;;15.04;100.00;101379.00;5115136;28;20035;-77
2023/05/21 09:25:50;;;;;;;0.10;0.00;;;;;;;15.15;100.00;101369.09;5087600;28;20159;-78
2023/05/21 09:28:25;;;;;;;0.10;0.10;;;;;;;15.12;100.00;101368.44;5102266;28;20035;-77
2023/05/21 09:30:55;;;;;;;0.05;0.05;;;;;;;15.22;100.00;101367.50;5095231;28;20042;-78
2023/05/21 09:33:25;;;;;;;0.10;0.10;;;;;;;15.24;100.00;101373.53;5116919;27;20038;-78
2023/05/21 09:35:53;;;;;;;0.00;0.00;;;;;;;15.27;100.00;101373.22;5092975;27;20126;-78
2023/05/21 09:38:25;;;;;;;0.10;0.10;;;;;;;15.32;100.00;101373.59;5098316;27;20042;-79
2023/05/21 09:40:55;;;;;;;0.00;0.00;;;;;;;15.38;100.00;101367.63;5117359;27;20027;-78
2023/05/21 09:43:26;;;;;;;0.10;0.10;;;;;;;15.52;100.00;101367.25;5117726;27;20031;-77
2023/05/21 09:45:57;;;;;;;1.27;0.20;;;;;;;15.55;100.00;101366.94;5110628;27;20844;-78
2023/05/21 09:48:39;;;;;;;0.20;0.20;;;;;;;15.63;100.00;101362.53;5086663;27;20583;-78
2023/05/21 09:51:11;;;;;;;0.10;0.10;;;;;;;15.69;100.00;101358.38;5114713;27;20076;-79
2023/05/21 09:53:51;;;;;;;0.25;0.25;;;;;;;15.75;100.00;101357.75;5085474;27;20134;-77
2023/05/21 09:56:24;;;;;;;0.10;0.10;;;;;;;15.78;100.00;101356.63;5095512;28;20130;-78
2023/05/21 09:58:57;;;;;;;0.20;0.20;;;;;;;15.80;100.00;101361.81;5116353;27;20032;-78
2023/05/21 10:01:27;;;;;;;0.10;0.10;;;;;;;15.75;100.00;101357.75;5099579;27;20773;-79
2023/05/21 10:03:58;;;;;;;0.80;0.20;;;;;;;15.82;100.00;101360.66;5085978;27;20086;-78
2023/05/21 10:06:32;;;;;;;0.30;0.30;;;;;;;15.95;100.00;101356.72;5106533;27;21132;-79
2023/05/21 10:09:04;;;;;;;0.40;0.20;;;;;;;16.14;100.00;101355.69;5122154;27;20031;-78
2023/05/21 10:11:35;;;;;;;0.25;0.20;;;;;;;16.24;100.00;101358.25;5101353;27;20043;-78
2023/05/21 10:14:14;;;;;;;0.35;0.10;;;;;;;16.31;100.00;101355.78;5101131;27;20392;-78
2023/05/21 10:16:46;;;;;;;0.10;0.10;;;;;;;16.24;100.00;101358.25;5115559;27;20114;-78
2023/05/21 10:19:16;;;;;;;1.52;0.20;;;;;;;16.22;100.00;101360.22;5100581;27;20067;-78
2023/05/21 10:21:46;;;;;;;0.75;0.20;;;;;;;16.26;100.00;101358.09;5111795;27;20416;-78
2023/05/21 10:24:15;;;;;;;0.32;0.30;;;;;;;16.20;100.00;101355.06;5097418;27;20042;-79
2023/05/21 10:26:46;;;;;;;0.73;0.22;;;;;;;16.27;100.00;101349.09;5100536;27;20393;-78
2023/05/21 10:29:17;;;;;;;0.32;0.32;;;;;;;16.29;100.00;101358.63;5095970;27;20050;-78
2023/05/21 10:31:48;;;;;;;0.30;0.30;;;;;;;16.33;100.00;101361.78;5117069;27;20058;-77
2023/05/21 10:34:18;;;;;;;0.43;0.43;;;;;;;16.41;100.00;101359.16;5111984;27;20544;-76
2023/05/21 10:36:48;;;;;;;0.45;0.45;;;;;;;16.41;100.00;101350.31;5119732;27;20043;-76
2023/05/21 10:39:20;;;;;;;0.32;0.32;;;;;;;16.42;100.00;101352.81;5091144;27;20035;-77
2023/05/21 10:42:00;;;;;;;0.30;0.30;;;;;;;16.48;100.00;101346.81;5100808;27;20047;-76
2023/05/21 10:44:47;;;;;;;0.30;0.30;;;;;;;16.48;100.00;101344.16;5118218;27;20035;-74
2023/05/21 10:47:36;;;;;;;0.43;0.30;;;;;;;16.46;100.00;101343.50;5112991;27;20035;-77
2023/05/21 10:50:28;;;;;;;0.40;0.40;;;;;;;16.52;100.00;101344.69;5112033;27;20035;-77
2023/05/21 10:52:56;;;;;;;0.40;0.40;;;;;;;16.52;100.00;101346.50;5064509;28;20089;-77
2023/05/21 10:55:46;;;;;;;0.60;0.43;;;;;;;16.57;100.00;101346.88;5081607;27;20051;-78
2023/05/21 10:58:14;;;;;;;0.93;0.63;;;;;;;16.56;100.00;101345.19;5098746;27;20066;-78
2023/05/21 11:00:44;;;;;;;0.22;0.20;;;;;;;16.65;100.00;101340.72;5082683;27;20093;-79
2023/05/21 11:03:13;;;;;;;0.38;0.38;;;;;;;16.71;100.00;101342.72;5095681;27;20084;-75
2023/05/21 11:05:55;;;;;;;0.65;0.38;;;;;;;16.78;100.00;101341.09;5103830;27;20028;-78
2023/05/21 11:08:30;;;;;;;0.43;0.43;;;;;;;16.80;100.00;101343.59;5095058;27;20031;-78
2023/05/21 11:11:00;;;;;;;0.10;0.10;;;;;;;16.73;100.00;101338.91;5116590;27;20038;-78
2023/05/21 11:13:49;;;;;;;0.20;0.20;;;;;;;16.72;100.00;101331.88;5112515;27;20684;-78
2023/05/21 11:16:21;;;;;;;0.20;0.20;;;;;;;16.66;100.00;101334.41;5134129;27;20074;-78
2023/05/21 11:18:49;;;;;;;0.10;0.10;;;;;;;16.67;100.00;101331.56;5110611;27;20036;-78
2023/05/21 11:21:21;;;;;;;0.10;0.10;;;;;;;16.66;100.00;101332.53;5094404;28;20045;-78
2023/05/21 11:23:50;;;;;;;0.30;0.30;;;;;;;16.69;100.00;101331.41;5109718;27;20051;-78
2023/05/21 11:26:22;;;;;;;0.28;0.20;;;;;;;16.78;100.00;101322.41;5101833;27;20046;-78
2023/05/21 11:29:11;;;;;;;2.20;0.30;;;;;;;16.75;100.00;101320.06;5104391;27;20669;-78
2023/05/21 11:31:49;;;;;;;0.40;0.30;;;;;;;16.76;100.00;101312.88;5096257;27;20050;-78
2023/05/21 11:34:33;;;;;;;0.40;0.28;;;;;;;16.70;100.00;101317.03;5106680;27;20773;-78
2023/05/21 11:37:28;;;;;;;1.17;0.30;;;;;;;16.68;100.00;101316.38;5079490;27;20039;-78